createdAt,value
2018-09-24T00:00:49.574Z,7.17
2018-09-24T00:01:49.546Z,7.13
2018-09-24T00:02:49.537Z,7.10
2018-09-24T00:03:49.523Z,7.12
2018-09-24T00:04:49.517Z,7.12
2018-09-24T00:05:49.503Z,7.12
2018-09-24T00:06:49.502Z,7.12
2018-09-24T00:07:49.481Z,7.17
2018-09-24T00:08:49.471Z,7.17
2018-09-24T00:09:49.460Z,7.05
2018-09-24T00:10:49.449Z,7.16
2018-09-24T00:11:49.455Z,7.13
2018-09-24T00:12:49.427Z,7.13
2018-09-24T00:13:49.417Z,7.03
2018-09-24T00:14:49.432Z,7.05
2018-09-24T00:15:49.397Z,7.05
2018-09-24T00:16:49.400Z,7.06
2018-09-24T00:17:49.376Z,7.15
2018-09-24T00:18:49.367Z,7.16
2018-09-24T00:19:49.351Z,7.06
2018-09-24T00:20:49.348Z,7.05
2018-09-24T00:21:49.380Z,7.09
2018-09-24T00:22:49.320Z,7.10
2018-09-24T00:23:49.315Z,6.99
2018-09-24T00:24:49.298Z,7.05
2018-09-24T00:25:49.287Z,7.07
2018-09-24T00:26:49.276Z,7.02
2018-09-24T00:27:49.277Z,7.06
2018-09-24T00:28:49.254Z,7.02
2018-09-24T00:29:49.242Z,6.88
2018-09-24T00:30:49.234Z,7.05
2018-09-24T00:31:49.223Z,6.97
2018-09-24T00:32:49.519Z,6.94
2018-09-24T00:33:49.202Z,6.91
2018-09-24T00:34:49.189Z,6.87
2018-09-24T00:35:49.180Z,6.95
2018-09-24T00:36:49.172Z,6.92
2018-09-24T00:37:49.159Z,6.77
2018-09-24T00:38:49.162Z,6.79
2018-09-24T00:39:49.137Z,6.74
2018-09-24T00:40:49.125Z,6.74
2018-09-24T00:41:49.120Z,6.76
2018-09-24T00:42:49.105Z,6.81
2018-09-24T00:43:49.107Z,6.81
2018-09-24T00:44:49.083Z,6.79
2018-09-24T00:45:49.072Z,6.80
2018-09-24T00:46:49.062Z,6.80
2018-09-24T00:47:49.049Z,6.77
2018-09-24T00:48:49.053Z,6.81
2018-09-24T00:49:49.106Z,6.76
2018-09-24T00:50:49.020Z,6.76
2018-09-24T00:51:49.004Z,6.76
2018-09-24T00:52:48.997Z,6.74
2018-09-24T00:53:48.987Z,6.70
2018-09-24T00:54:48.975Z,6.77
2018-09-24T00:55:48.977Z,6.76
2018-09-24T00:56:48.952Z,6.79
2018-09-24T00:57:48.940Z,6.74
2018-09-24T00:58:48.931Z,6.70
2018-09-24T00:59:48.921Z,6.73
2018-09-24T01:00:48.924Z,6.77
2018-09-24T01:01:48.904Z,6.73
2018-09-24T01:02:48.886Z,6.70
2018-09-24T01:03:48.875Z,6.77
2018-09-24T01:04:48.879Z,6.71
2018-09-24T01:05:48.854Z,6.69
2018-09-24T01:06:48.856Z,6.70
2018-09-24T01:07:48.831Z,6.59
2018-09-24T01:08:48.821Z,6.66
2018-09-24T01:09:48.811Z,6.66
2018-09-24T01:10:48.801Z,6.67
2018-09-24T01:11:48.797Z,6.66
2018-09-24T01:12:48.788Z,6.61
2018-09-24T01:13:48.772Z,6.62
2018-09-24T01:14:48.758Z,6.56
2018-09-24T01:15:48.746Z,6.66
2018-09-24T01:16:48.733Z,6.61
2018-09-24T01:17:48.738Z,6.51
2018-09-24T01:18:48.711Z,6.61
2018-09-24T01:19:48.701Z,6.51
2018-09-24T01:20:48.690Z,6.59
2018-09-24T01:21:48.682Z,6.56
2018-09-24T01:22:48.709Z,6.46
2018-09-24T01:23:48.655Z,6.51
2018-09-24T01:24:48.645Z,6.44
2018-09-24T01:25:48.634Z,6.52
2018-09-24T01:26:48.624Z,6.41
2018-09-24T01:27:48.613Z,6.49
2018-09-24T01:28:48.615Z,6.44
2018-09-24T01:29:48.590Z,6.43
2018-09-24T01:30:48.581Z,6.51
2018-09-24T01:31:48.569Z,6.44
2018-09-24T01:32:48.558Z,6.51
2018-09-24T01:33:48.613Z,6.44
2018-09-24T01:34:48.537Z,6.51
2018-09-24T01:35:48.526Z,6.41
2018-09-24T01:36:48.518Z,6.49
2018-09-24T01:37:48.505Z,6.38
2018-09-24T01:38:48.514Z,6.46
2018-09-24T01:39:48.491Z,6.44
2018-09-24T01:40:48.482Z,6.43
2018-09-24T01:41:48.461Z,6.41
2018-09-24T01:42:48.452Z,6.43
2018-09-24T01:43:48.442Z,6.43
2018-09-24T01:44:48.430Z,6.46
2018-09-24T01:45:48.433Z,6.37
2018-09-24T01:46:48.405Z,6.40
2018-09-24T01:47:48.394Z,6.38
2018-09-24T01:48:48.384Z,6.31
2018-09-24T01:49:48.375Z,6.27
2018-09-24T01:50:48.360Z,6.28
2018-09-24T01:51:48.364Z,6.28
2018-09-24T01:52:48.344Z,6.27
2018-09-24T01:53:48.334Z,6.08
2018-09-24T01:54:48.318Z,6.27
2018-09-24T01:55:48.307Z,6.11
2018-09-24T01:56:48.307Z,6.14
2018-09-24T01:57:48.296Z,6.17
2018-09-24T01:58:48.276Z,6.12
2018-09-24T01:59:48.265Z,6.15
2018-09-24T02:00:48.255Z,6.12
2018-09-24T02:01:48.246Z,6.11
2018-09-24T02:02:48.244Z,6.11
2018-09-24T02:03:48.231Z,6.15
2018-09-24T02:04:48.210Z,6.12
2018-09-24T02:05:48.198Z,6.04
2018-09-24T02:06:48.189Z,6.11
2018-09-24T02:07:48.211Z,6.09
2018-09-24T02:08:48.165Z,6.01
2018-09-24T02:09:48.155Z,6.01
2018-09-24T02:10:48.144Z,6.01
2018-09-24T02:11:48.136Z,5.96
2018-09-24T02:12:48.123Z,5.94
2018-09-24T02:13:48.126Z,5.99
2018-09-24T02:14:48.104Z,5.93
2018-09-24T02:15:48.090Z,5.91
2018-09-24T02:16:48.079Z,5.91
2018-09-24T02:17:48.069Z,5.86
2018-09-24T02:18:48.075Z,5.83
2018-09-24T02:19:48.047Z,5.85
2018-09-24T02:20:48.038Z,5.97
2018-09-24T02:21:48.025Z,5.81
2018-09-24T02:22:48.011Z,5.89
2018-09-24T02:23:48.002Z,5.93
2018-09-24T02:24:48.009Z,5.81
2018-09-24T02:25:47.978Z,5.89
2018-09-24T02:26:47.967Z,5.83
2018-09-24T02:27:47.958Z,5.91
2018-09-24T02:28:47.949Z,5.90
2018-09-24T02:29:47.942Z,5.94
2018-09-24T02:30:47.938Z,5.89
2018-09-24T02:31:47.915Z,5.86
2018-09-24T02:32:47.905Z,5.85
2018-09-24T02:33:47.897Z,5.89
2018-09-24T02:34:47.881Z,5.78
2018-09-24T02:35:47.885Z,5.79
2018-09-24T02:36:47.861Z,5.82
2018-09-24T02:37:47.848Z,5.78
2018-09-24T02:38:47.838Z,5.79
2018-09-24T02:39:47.841Z,5.82
2018-09-24T02:40:47.829Z,5.82
2018-09-24T02:41:47.807Z,5.78
2018-09-24T02:42:47.793Z,5.81
2018-09-24T02:43:47.787Z,5.76
2018-09-24T02:44:47.786Z,5.85
2018-09-24T02:45:47.761Z,5.85
2018-09-24T02:46:47.751Z,5.81
2018-09-24T02:47:47.739Z,5.81
2018-09-24T02:48:47.738Z,5.81
2018-09-24T02:49:47.716Z,5.81
2018-09-24T02:50:47.715Z,5.86
2018-09-24T02:51:47.695Z,5.89
2018-09-24T02:52:47.684Z,5.89
2018-09-24T02:53:47.706Z,5.90
2018-09-24T02:54:47.662Z,5.78
2018-09-24T02:55:47.649Z,5.78
2018-09-24T02:56:47.638Z,5.78
2018-09-24T02:57:47.630Z,5.81
2018-09-24T02:58:47.616Z,5.78
2018-09-24T02:59:47.620Z,5.76
2018-09-24T03:00:47.597Z,5.79
2018-09-24T03:01:47.584Z,5.82
2018-09-24T03:02:47.574Z,5.82
2018-09-24T03:03:47.562Z,5.79
2018-09-24T03:04:47.571Z,5.78
2018-09-24T03:05:47.542Z,5.75
2018-09-24T03:06:47.530Z,5.86
2018-09-24T03:07:47.520Z,5.85
2018-09-24T03:08:47.511Z,5.81
2018-09-24T03:09:47.524Z,5.71
2018-09-24T03:10:47.501Z,5.85
2018-09-24T03:11:47.478Z,5.76
2018-09-24T03:12:47.465Z,5.76
2018-09-24T03:13:47.490Z,5.75
2018-09-24T03:14:47.443Z,5.82
2018-09-24T03:15:47.432Z,5.81
2018-09-24T03:16:47.419Z,5.83
2018-09-24T03:17:47.411Z,5.91
2018-09-24T03:18:47.398Z,5.82
2018-09-24T03:19:47.401Z,5.78
2018-09-24T03:20:47.390Z,5.79
2018-09-24T03:21:47.365Z,5.79
2018-09-24T03:22:47.359Z,5.76
2018-09-24T03:23:47.345Z,5.79
2018-09-24T03:24:47.334Z,5.82
2018-09-24T03:25:47.337Z,5.81
2018-09-24T03:26:47.311Z,5.82
2018-09-24T03:27:47.300Z,5.79
2018-09-24T03:28:47.290Z,5.76
2018-09-24T03:29:47.279Z,5.78
2018-09-24T03:30:47.281Z,5.75
2018-09-24T03:31:47.256Z,5.79
2018-09-24T03:32:47.245Z,5.79
2018-09-24T03:33:47.234Z,5.85
2018-09-24T03:34:47.242Z,5.78
2018-09-24T03:35:47.215Z,5.82
2018-09-24T03:36:47.203Z,5.82
2018-09-24T03:37:47.191Z,5.78
2018-09-24T03:38:47.203Z,5.82
2018-09-24T03:39:47.185Z,5.83
2018-09-24T03:40:47.158Z,5.83
2018-09-24T03:41:47.194Z,5.81
2018-09-24T03:42:47.136Z,5.81
2018-09-24T03:43:47.124Z,5.79
2018-09-24T03:44:47.135Z,5.75
2018-09-24T03:45:47.100Z,5.85
2018-09-24T03:46:47.094Z,5.78
2018-09-24T03:47:47.078Z,5.85
2018-09-24T03:48:47.067Z,5.76
2018-09-24T03:49:47.059Z,5.72
2018-09-24T03:50:47.062Z,5.74
2018-09-24T03:51:47.037Z,5.78
2018-09-24T03:52:47.026Z,5.74
2018-09-24T03:53:47.014Z,5.71
2018-09-24T03:54:47.003Z,5.72
2018-09-24T03:55:47.008Z,5.63
2018-09-24T03:56:46.980Z,5.58
2018-09-24T03:57:46.969Z,5.67
2018-09-24T03:58:46.999Z,5.72
2018-09-24T03:59:46.949Z,5.71
2018-09-24T04:00:46.953Z,5.63
2018-09-24T04:01:46.941Z,5.67
2018-09-24T04:02:46.915Z,5.64
2018-09-24T04:03:46.903Z,5.65
2018-09-24T04:04:46.894Z,5.60
2018-09-24T04:05:46.883Z,5.64
2018-09-24T04:06:46.888Z,5.61
2018-09-24T04:07:46.859Z,5.61
2018-09-24T04:08:46.847Z,5.58
2018-09-24T04:09:46.936Z,5.57
2018-09-24T04:10:46.876Z,5.60
2018-09-24T04:11:46.815Z,5.43
2018-09-24T04:12:46.805Z,5.49
2018-09-24T04:13:46.798Z,5.43
2018-09-24T04:14:46.785Z,5.39
2018-09-24T04:15:46.771Z,5.42
2018-09-24T04:16:46.773Z,5.39
2018-09-24T04:17:46.751Z,5.33
2018-09-24T04:18:46.752Z,5.40
2018-09-24T04:19:46.728Z,5.33
2018-09-24T04:20:46.718Z,5.31
2018-09-24T04:21:46.708Z,5.40
2018-09-24T04:22:46.694Z,5.33
2018-09-24T04:23:46.718Z,5.35
2018-09-24T04:24:46.673Z,5.30
2018-09-24T04:25:46.664Z,5.30
2018-09-24T04:26:46.674Z,5.35
2018-09-24T04:27:46.641Z,5.28
2018-09-24T04:28:46.642Z,5.36
2018-09-24T04:29:46.627Z,5.31
2018-09-24T04:30:46.605Z,5.22
2018-09-24T04:31:46.598Z,5.22
2018-09-24T04:32:46.587Z,5.28
2018-09-24T04:33:46.587Z,5.24
2018-09-24T04:34:46.565Z,5.24
2018-09-24T04:35:46.553Z,5.22
2018-09-24T04:36:46.543Z,5.21
2018-09-24T04:37:46.535Z,5.15
2018-09-24T04:38:46.535Z,5.12
2018-09-24T04:39:46.510Z,5.17
2018-09-24T04:40:46.499Z,5.21
2018-09-24T04:41:46.488Z,5.18
2018-09-24T04:42:46.477Z,5.18
2018-09-24T04:43:46.483Z,5.07
2018-09-24T04:44:46.455Z,5.03
2018-09-24T04:45:46.444Z,5.02
2018-09-24T04:46:46.434Z,5.02
2018-09-24T04:47:46.422Z,5.04
2018-09-24T04:48:46.412Z,5.09
2018-09-24T04:49:46.420Z,5.17
2018-09-24T04:50:46.388Z,5.10
2018-09-24T04:51:46.377Z,5.06
2018-09-24T04:52:46.365Z,5.03
2018-09-24T04:53:46.353Z,5.00
2018-09-24T04:54:46.346Z,5.02
2018-09-24T04:55:46.342Z,5.03
2018-09-24T04:56:46.322Z,5.00
2018-09-24T04:57:46.312Z,5.02
2018-09-24T04:58:46.355Z,5.00
2018-09-24T04:59:46.324Z,4.97
2018-09-24T05:00:46.279Z,4.96
2018-09-24T05:01:46.269Z,5.00
2018-09-24T05:02:46.257Z,4.97
2018-09-24T05:03:46.247Z,5.03
2018-09-24T05:04:46.235Z,4.94
2018-09-24T05:05:46.243Z,4.97
2018-09-24T05:06:46.216Z,4.97
2018-09-24T05:07:46.204Z,4.97
2018-09-24T05:08:46.191Z,4.92
2018-09-24T05:09:46.181Z,4.96
2018-09-24T05:10:46.169Z,4.92
2018-09-24T05:11:46.172Z,4.92
2018-09-24T05:12:46.162Z,4.92
2018-09-24T05:13:46.137Z,5.00
2018-09-24T05:14:46.128Z,4.89
2018-09-24T05:15:46.117Z,4.94
2018-09-24T05:16:46.125Z,4.89
2018-09-24T05:17:46.092Z,4.88
2018-09-24T05:18:46.094Z,4.85
2018-09-24T05:19:46.072Z,4.85
2018-09-24T05:20:46.061Z,4.92
2018-09-24T05:21:46.061Z,4.84
2018-09-24T05:22:46.040Z,4.77
2018-09-24T05:23:46.029Z,4.88
2018-09-24T05:24:46.016Z,4.91
2018-09-24T05:25:46.007Z,4.86
2018-09-24T05:26:46.011Z,4.91
2018-09-24T05:27:45.985Z,5.00
2018-09-24T05:28:45.976Z,4.86
2018-09-24T05:29:45.964Z,4.85
2018-09-24T05:30:45.952Z,4.84
2018-09-24T05:31:45.941Z,4.75
2018-09-24T05:32:45.948Z,4.84
2018-09-24T05:33:45.920Z,4.77
2018-09-24T05:34:45.910Z,4.85
2018-09-24T05:35:45.897Z,4.80
2018-09-24T05:36:45.886Z,4.85
2018-09-24T05:37:45.874Z,4.82
2018-09-24T05:38:45.874Z,4.88
2018-09-24T05:39:45.851Z,4.84
2018-09-24T05:40:45.842Z,4.77
2018-09-24T05:41:45.834Z,4.82
2018-09-24T05:42:46.453Z,4.82
2018-09-24T05:43:45.810Z,4.88
2018-09-24T05:44:45.800Z,4.80
2018-09-24T05:45:45.789Z,4.78
2018-09-24T05:46:45.778Z,4.84
2018-09-24T05:47:45.784Z,4.78
2018-09-24T05:48:45.768Z,4.82
2018-09-24T05:49:45.743Z,4.75
2018-09-24T05:50:45.747Z,4.77
2018-09-24T05:51:45.721Z,4.77
2018-09-24T05:52:45.713Z,4.78
2018-09-24T05:53:45.703Z,4.82
2018-09-24T05:54:45.689Z,4.91
2018-09-24T05:55:45.718Z,4.89
2018-09-24T05:56:45.668Z,4.73
2018-09-24T05:57:45.657Z,4.92
2018-09-24T05:58:45.648Z,4.86
2018-09-24T05:59:45.637Z,4.88
2018-09-24T06:00:45.625Z,4.91
2018-09-24T06:01:45.626Z,4.88
2018-09-24T06:02:45.603Z,4.91
2018-09-24T06:03:45.590Z,4.89
2018-09-24T06:04:45.580Z,4.88
2018-09-24T06:05:45.582Z,4.99
2018-09-24T06:06:45.572Z,4.92
2018-09-24T06:07:45.548Z,4.96
2018-09-24T06:08:45.539Z,4.91
2018-09-24T06:09:45.528Z,4.92
2018-09-24T06:10:45.529Z,5.04
2018-09-24T06:11:45.505Z,5.03
2018-09-24T06:12:45.494Z,5.02
2018-09-24T06:13:45.534Z,5.09
2018-09-24T06:14:45.473Z,5.06
2018-09-24T06:15:45.476Z,5.07
2018-09-24T06:16:45.451Z,5.07
2018-09-24T06:17:45.437Z,5.07
2018-09-24T06:18:45.427Z,5.02
2018-09-24T06:19:45.415Z,5.21
2018-09-24T06:20:45.422Z,5.20
2018-09-24T06:21:45.394Z,5.20
2018-09-24T06:22:45.386Z,5.12
2018-09-24T06:23:45.372Z,5.33
2018-09-24T06:24:45.363Z,5.20
2018-09-24T06:25:45.363Z,5.24
2018-09-24T06:26:45.354Z,5.17
2018-09-24T06:27:45.329Z,5.30
2018-09-24T06:28:45.319Z,5.30
2018-09-24T06:29:45.306Z,5.27
2018-09-24T06:30:45.310Z,5.38
2018-09-24T06:31:45.305Z,5.42
2018-09-24T06:32:45.272Z,5.42
2018-09-24T06:33:45.265Z,5.46
2018-09-24T06:34:45.251Z,5.40
2018-09-24T06:35:45.241Z,5.56
2018-09-24T06:36:45.256Z,5.60
2018-09-24T06:37:45.228Z,5.74
2018-09-24T06:38:45.210Z,5.78
2018-09-24T06:39:45.195Z,5.86
2018-09-24T06:40:45.186Z,5.91
2018-09-24T06:41:45.192Z,5.99
2018-09-24T06:42:45.163Z,6.06
2018-09-24T06:43:45.155Z,6.08
2018-09-24T06:44:45.141Z,6.11
2018-09-24T06:45:45.180Z,6.15
2018-09-24T06:46:45.140Z,6.11
2018-09-24T06:47:45.110Z,6.18
2018-09-24T06:48:45.120Z,6.19
2018-09-24T06:49:45.124Z,6.27
2018-09-24T06:50:45.079Z,6.25
2018-09-24T06:51:45.081Z,6.25
2018-09-24T06:52:45.064Z,6.27
2018-09-24T06:53:45.064Z,6.27
2018-09-24T06:54:45.933Z,6.44
2018-09-24T06:55:45.024Z,6.37
2018-09-24T06:56:45.014Z,6.44
2018-09-24T06:57:45.011Z,6.44
2018-09-24T06:58:44.995Z,6.43
2018-09-24T06:59:44.980Z,6.54
2018-09-24T07:00:44.968Z,6.61
2018-09-24T07:01:44.958Z,6.69
2018-09-24T07:02:44.956Z,6.69
2018-09-24T07:03:44.981Z,6.71
2018-09-24T07:04:44.923Z,6.91
2018-09-24T07:05:44.925Z,6.94
2018-09-24T07:06:44.904Z,7.03
2018-09-24T07:07:44.912Z,7.09
2018-09-24T07:08:44.881Z,7.21
2018-09-24T07:09:44.901Z,7.24
2018-09-24T07:10:44.860Z,7.48
2018-09-24T07:11:44.849Z,7.57
2018-09-24T07:12:44.838Z,7.67
2018-09-24T07:13:44.830Z,7.72
2018-09-24T07:14:44.816Z,7.82
2018-09-24T07:15:44.818Z,7.89
2018-09-24T07:16:44.791Z,7.97
2018-09-24T07:17:44.780Z,7.93
2018-09-24T07:18:44.769Z,8.04
2018-09-24T07:19:44.760Z,8.10
2018-09-24T07:20:44.763Z,8.20
2018-09-24T07:21:44.736Z,8.25
2018-09-24T07:22:44.726Z,8.41
2018-09-24T07:23:44.717Z,8.33
2018-09-24T07:24:44.705Z,8.47
2018-09-24T07:25:44.696Z,8.52
2018-09-24T07:26:44.727Z,8.66
2018-09-24T07:27:44.832Z,8.77
2018-09-24T07:28:44.662Z,8.98
2018-09-24T07:29:44.673Z,8.98
2018-09-24T07:30:44.640Z,9.14
2018-09-24T07:31:44.627Z,9.21
2018-09-24T07:32:44.615Z,9.31
2018-09-24T07:33:44.620Z,9.38
2018-09-24T07:34:44.592Z,9.36
2018-09-24T07:35:44.620Z,9.38
2018-09-24T07:36:44.573Z,9.51
2018-09-24T07:37:44.563Z,9.66
2018-09-24T07:38:44.552Z,9.71
2018-09-24T07:39:44.539Z,9.74
2018-09-24T07:40:44.529Z,9.84
2018-09-24T07:41:44.534Z,9.83
2018-09-24T07:42:44.506Z,9.91
2018-09-24T07:43:44.509Z,9.89
2018-09-24T07:44:44.487Z,9.99
2018-09-24T07:45:44.475Z,10.04
2018-09-24T07:46:44.460Z,10.01
2018-09-24T07:47:44.449Z,10.08
2018-09-24T07:48:44.459Z,10.12
2018-09-24T07:49:44.427Z,10.14
2018-09-24T07:50:44.417Z,10.22
2018-09-24T07:51:44.405Z,10.29
2018-09-24T07:52:44.394Z,10.33
2018-09-24T07:53:44.383Z,10.32
2018-09-24T07:54:44.387Z,10.41
2018-09-24T07:55:44.363Z,10.40
2018-09-24T07:56:44.351Z,10.47
2018-09-24T07:57:44.343Z,10.64
2018-09-24T07:58:44.329Z,10.67
2018-09-24T07:59:44.326Z,10.73
2018-09-24T08:00:44.309Z,10.88
2018-09-24T08:01:44.322Z,11.00
2018-09-24T08:02:44.284Z,10.96
2018-09-24T08:03:44.273Z,11.00
2018-09-24T08:04:44.275Z,11.09
2018-09-24T08:05:44.273Z,11.18
2018-09-24T08:06:44.245Z,11.24
2018-09-24T08:07:44.237Z,11.35
2018-09-24T08:08:44.223Z,11.39
2018-09-24T08:09:44.211Z,11.32
2018-09-24T08:10:44.199Z,11.33
2018-09-24T08:11:44.210Z,11.39
2018-09-24T08:12:44.229Z,11.49
2018-09-24T08:13:44.168Z,11.62
2018-09-24T08:14:44.157Z,11.72
2018-09-24T08:15:44.144Z,11.60
2018-09-24T08:16:44.137Z,11.72
2018-09-24T08:17:44.139Z,11.62
2018-09-24T08:18:44.111Z,11.69
2018-09-24T08:19:44.099Z,11.67
2018-09-24T08:20:44.099Z,11.82
2018-09-24T08:21:44.094Z,11.83
2018-09-24T08:22:44.066Z,12.01
2018-09-24T08:23:44.058Z,12.09
2018-09-24T08:24:44.042Z,12.04
2018-09-24T08:25:44.032Z,12.16
2018-09-24T08:26:44.033Z,12.04
2018-09-24T08:27:44.025Z,12.09
2018-09-24T08:28:44.012Z,12.24
2018-09-24T08:29:43.987Z,12.45
2018-09-24T08:30:43.976Z,12.45
2018-09-24T08:31:43.962Z,12.41
2018-09-24T08:32:43.952Z,12.50
2018-09-24T08:33:43.957Z,12.49
2018-09-24T08:34:43.934Z,12.49
2018-09-24T08:35:43.918Z,12.47
2018-09-24T08:36:43.923Z,12.52
2018-09-24T08:37:43.936Z,12.56
2018-09-24T08:38:43.893Z,12.60
2018-09-24T08:39:43.877Z,12.70
2018-09-24T08:40:43.870Z,12.75
2018-09-24T08:41:43.854Z,12.86
2018-09-24T08:42:43.844Z,13.03
2018-09-24T08:43:43.852Z,13.14
2018-09-24T08:44:43.824Z,13.28
2018-09-24T08:45:43.817Z,13.28
2018-09-24T08:46:43.804Z,13.33
2018-09-24T08:47:43.791Z,13.32
2018-09-24T08:48:43.793Z,13.32
2018-09-24T08:49:43.825Z,13.28
2018-09-24T08:50:43.757Z,13.33
2018-09-24T08:51:43.748Z,13.45
2018-09-24T08:52:43.733Z,13.54
2018-09-24T08:53:43.724Z,13.59
2018-09-24T08:54:43.753Z,13.73
2018-09-24T08:55:43.702Z,13.77
2018-09-24T08:56:43.795Z,13.92
2018-09-24T08:57:43.687Z,13.91
2018-09-24T08:58:43.670Z,14.10
2018-09-24T08:59:43.680Z,14.18
2018-09-24T09:00:43.647Z,14.02
2018-09-24T09:01:43.636Z,14.02
2018-09-24T09:02:43.681Z,13.97
2018-09-24T09:03:43.614Z,14.03
2018-09-24T09:04:43.602Z,14.03
2018-09-24T09:05:43.608Z,14.00
2018-09-24T09:06:43.582Z,14.17
2018-09-24T09:07:43.573Z,14.12
2018-09-24T09:08:43.558Z,14.29
2018-09-24T09:09:43.551Z,14.35
2018-09-24T09:10:43.553Z,14.42
2018-09-24T09:11:43.528Z,14.43
2018-09-24T09:12:43.515Z,14.65
2018-09-24T09:13:43.512Z,14.70
2018-09-24T09:14:43.506Z,14.75
2018-09-24T09:15:43.521Z,14.73
2018-09-24T09:16:43.499Z,14.72
2018-09-24T09:17:43.508Z,14.77
2018-09-24T09:18:43.453Z,14.72
2018-09-24T09:19:43.453Z,14.70
2018-09-24T09:20:43.451Z,14.70
2018-09-24T09:21:43.420Z,14.80
2018-09-24T09:22:43.408Z,14.80
2018-09-24T09:23:43.397Z,14.81
2018-09-24T09:24:43.386Z,14.91
2018-09-24T09:25:43.376Z,14.86
2018-09-24T09:26:43.376Z,14.84
2018-09-24T09:27:43.353Z,14.86
2018-09-24T09:28:43.344Z,14.92
2018-09-24T09:29:43.338Z,15.03
2018-09-24T09:30:43.337Z,15.06
2018-09-24T09:31:43.309Z,14.98
2018-09-24T09:32:43.299Z,14.92
2018-09-24T09:33:43.288Z,14.88
2018-09-24T09:34:43.275Z,14.96
2018-09-24T09:35:43.270Z,14.99
2018-09-24T09:36:43.267Z,14.95
2018-09-24T09:37:43.244Z,15.14
2018-09-24T09:38:43.233Z,15.27
2018-09-24T09:39:43.223Z,15.32
2018-09-24T09:40:43.212Z,15.47
2018-09-24T09:41:43.220Z,15.56
2018-09-24T09:42:43.188Z,15.46
2018-09-24T09:43:43.182Z,15.38
2018-09-24T09:44:43.164Z,15.29
2018-09-24T09:45:43.155Z,15.29
2018-09-24T09:46:43.147Z,15.36
2018-09-24T09:47:43.150Z,15.50
2018-09-24T09:48:43.126Z,15.56
2018-09-24T09:49:43.110Z,15.56
2018-09-24T09:50:43.101Z,15.53
2018-09-24T09:51:43.094Z,15.57
2018-09-24T09:52:43.097Z,15.59
2018-09-24T09:53:43.188Z,15.72
2018-09-24T09:54:43.056Z,15.86
2018-09-24T09:55:43.047Z,15.96
2018-09-24T09:56:43.037Z,16.14
2018-09-24T09:57:43.052Z,16.09
2018-09-24T09:58:43.011Z,16.14
2018-09-24T09:59:43.020Z,16.08
2018-09-24T10:00:42.992Z,16.21
2018-09-24T10:01:42.981Z,16.11
2018-09-24T10:02:42.968Z,15.96
2018-09-24T10:03:42.984Z,16.00
2018-09-24T10:04:43.023Z,16.09
2018-09-24T10:05:42.935Z,16.00
2018-09-24T10:06:42.927Z,15.87
2018-09-24T10:07:42.913Z,15.84
2018-09-24T10:08:42.917Z,15.83
2018-09-24T10:09:42.905Z,15.67
2018-09-24T10:10:42.881Z,15.53
2018-09-24T10:11:42.872Z,15.49
2018-09-24T10:12:42.860Z,15.44
2018-09-24T10:13:42.851Z,15.41
2018-09-24T10:14:42.873Z,15.50
2018-09-24T10:15:42.827Z,15.49
2018-09-24T10:16:42.817Z,15.35
2018-09-24T10:17:42.804Z,15.29
2018-09-24T10:18:42.792Z,15.36
2018-09-24T10:19:42.781Z,15.35
2018-09-24T10:20:42.790Z,15.14
2018-09-24T10:21:42.760Z,14.95
2018-09-24T10:22:42.758Z,15.01
2018-09-24T10:23:42.739Z,15.02
2018-09-24T10:24:42.729Z,15.11
2018-09-24T10:25:42.716Z,15.29
2018-09-24T10:26:42.743Z,15.56
2018-09-24T10:27:42.709Z,15.54
2018-09-24T10:28:42.688Z,15.53
2018-09-24T10:29:42.675Z,15.50
2018-09-24T10:30:42.661Z,15.44
2018-09-24T10:31:42.650Z,15.31
2018-09-24T10:32:42.661Z,15.36
2018-09-24T10:33:42.652Z,15.28
2018-09-24T10:34:42.619Z,15.07
2018-09-24T10:35:42.606Z,14.96
2018-09-24T10:36:42.609Z,14.80
2018-09-24T10:37:42.587Z,14.75
2018-09-24T10:38:42.576Z,14.73
2018-09-24T10:39:42.607Z,14.70
2018-09-24T10:40:42.555Z,14.89
2018-09-24T10:41:42.556Z,14.94
2018-09-24T10:42:42.529Z,15.20
2018-09-24T10:43:42.539Z,15.27
2018-09-24T10:44:42.509Z,15.50
2018-09-24T10:45:42.498Z,15.75
2018-09-24T10:46:42.487Z,15.84
2018-09-24T10:47:42.478Z,15.94
2018-09-24T10:48:42.466Z,15.92
2018-09-24T10:49:42.469Z,16.04
2018-09-24T10:50:42.442Z,16.17
2018-09-24T10:51:42.444Z,16.25
2018-09-24T10:52:42.424Z,16.46
2018-09-24T10:53:42.416Z,16.53
2018-09-24T10:54:42.400Z,16.58
2018-09-24T10:55:42.448Z,16.73
2018-09-24T10:56:42.404Z,16.76
2018-09-24T10:57:42.366Z,16.83
2018-09-24T10:58:42.356Z,17.01
2018-09-24T10:59:42.347Z,16.91
2018-09-24T11:00:42.333Z,17.06
2018-09-24T11:01:42.322Z,17.14
2018-09-24T11:02:42.323Z,17.23
2018-09-24T11:03:42.304Z,17.38
2018-09-24T11:04:42.314Z,17.52
2018-09-24T11:05:42.281Z,17.64
2018-09-24T11:06:42.275Z,17.68
2018-09-24T11:07:42.281Z,17.63
2018-09-24T11:08:42.248Z,17.55
2018-09-24T11:09:42.235Z,17.58
2018-09-24T11:10:42.270Z,17.43
2018-09-24T11:11:42.216Z,17.33
2018-09-24T11:12:42.204Z,17.16
2018-09-24T11:13:42.206Z,17.03
2018-09-24T11:14:42.182Z,17.06
2018-09-24T11:15:42.192Z,17.11
2018-09-24T11:16:42.389Z,17.21
2018-09-24T11:17:42.377Z,17.36
2018-09-24T11:18:42.149Z,17.37
2018-09-24T11:19:42.129Z,17.48
2018-09-24T11:20:42.119Z,17.33
2018-09-24T11:21:42.108Z,17.07
2018-09-24T11:22:42.096Z,16.89
2018-09-24T11:23:42.171Z,16.67
2018-09-24T11:24:42.075Z,16.57
2018-09-24T11:25:42.063Z,16.48
2018-09-24T11:26:42.053Z,16.53
2018-09-24T11:27:42.043Z,16.49
2018-09-24T11:28:42.043Z,16.60
2018-09-24T11:29:42.097Z,16.81
2018-09-24T11:30:42.010Z,16.82
2018-09-24T11:31:42.000Z,16.97
2018-09-24T11:32:41.984Z,17.03
2018-09-24T11:33:41.976Z,17.26
2018-09-24T11:34:41.984Z,17.31
2018-09-24T11:35:41.955Z,17.37
2018-09-24T11:36:41.964Z,17.37
2018-09-24T11:37:41.929Z,17.51
2018-09-24T11:38:41.921Z,17.44
2018-09-24T11:39:41.911Z,17.49
2018-09-24T11:40:41.906Z,17.51
2018-09-24T11:41:41.889Z,17.59
2018-09-24T11:42:41.876Z,17.66
2018-09-24T11:43:41.867Z,17.70
2018-09-24T11:44:41.895Z,17.79
2018-09-24T11:45:41.860Z,17.66
2018-09-24T11:46:41.907Z,17.58
2018-09-24T11:47:41.821Z,17.52
2018-09-24T11:48:41.818Z,17.52
2018-09-24T11:49:41.799Z,17.48
2018-09-24T11:50:41.803Z,17.21
2018-09-24T11:51:41.787Z,17.01
2018-09-24T11:52:41.771Z,16.68
2018-09-24T11:53:41.758Z,16.28
2018-09-24T11:54:41.745Z,16.17
2018-09-24T11:55:41.747Z,16.20
2018-09-24T11:56:41.763Z,16.11
2018-09-24T11:57:41.714Z,16.14
2018-09-24T11:58:41.709Z,16.15
2018-09-24T11:59:41.689Z,16.27
2018-09-24T12:00:41.679Z,16.45
2018-09-24T12:01:41.668Z,16.45
2018-09-24T12:02:41.670Z,16.39
2018-09-24T12:03:41.646Z,16.39
2018-09-24T12:04:41.635Z,16.39
2018-09-24T12:05:41.626Z,16.49
2018-09-24T12:06:41.614Z,16.63
2018-09-24T12:07:41.616Z,16.50
2018-09-24T12:08:41.593Z,16.49
2018-09-24T12:09:41.579Z,16.48
2018-09-24T12:10:41.587Z,16.25
2018-09-24T12:11:41.582Z,16.14
2018-09-24T12:12:41.549Z,15.89
2018-09-24T12:13:41.541Z,15.90
2018-09-24T12:14:41.525Z,15.71
2018-09-24T12:15:41.535Z,15.50
2018-09-24T12:16:41.505Z,15.28
2018-09-24T12:17:41.503Z,14.96
2018-09-24T12:18:41.484Z,14.72
2018-09-24T12:19:41.481Z,14.35
2018-09-24T12:20:41.460Z,14.06
2018-09-24T12:21:41.450Z,13.88
2018-09-24T12:22:41.448Z,13.66
2018-09-24T12:23:41.429Z,13.51
2018-09-24T12:24:41.415Z,13.44
2018-09-24T12:25:41.438Z,13.42
2018-09-24T12:26:41.396Z,13.20
2018-09-24T12:27:41.382Z,13.12
2018-09-24T12:28:41.372Z,13.05
2018-09-24T12:29:41.361Z,13.05
2018-09-24T12:30:41.367Z,13.14
2018-09-24T12:31:41.349Z,13.30
2018-09-24T12:32:41.339Z,13.45
2018-09-24T12:33:41.320Z,13.52
2018-09-24T12:34:41.306Z,13.70
2018-09-24T12:35:41.298Z,13.79
2018-09-24T12:36:41.300Z,13.92
2018-09-24T12:37:41.287Z,13.95
2018-09-24T12:38:41.262Z,13.96
2018-09-24T12:39:41.252Z,13.96
2018-09-24T12:40:41.245Z,13.87
2018-09-24T12:41:41.229Z,13.95
2018-09-24T12:42:41.229Z,13.97
2018-09-24T12:43:41.207Z,13.84
2018-09-24T12:44:41.199Z,13.95
2018-09-24T12:45:41.188Z,13.81
2018-09-24T12:46:41.179Z,13.77
2018-09-24T12:47:41.175Z,13.70
2018-09-24T12:48:41.158Z,13.49
2018-09-24T12:49:41.142Z,13.38
2018-09-24T12:50:41.131Z,13.30
2018-09-24T12:51:41.122Z,13.11
2018-09-24T12:52:41.121Z,13.01
2018-09-24T12:53:41.115Z,12.87
2018-09-24T12:54:41.089Z,12.87
2018-09-24T12:55:41.078Z,12.87
2018-09-24T12:56:41.067Z,12.90
2018-09-24T12:57:41.056Z,12.70
2018-09-24T12:58:41.059Z,12.72
2018-09-24T12:59:41.036Z,12.64
2018-09-24T13:00:41.020Z,12.60
2018-09-24T13:01:41.013Z,12.59
2018-09-24T13:02:40.999Z,12.41
2018-09-24T13:03:40.988Z,12.50
2018-09-24T13:04:40.992Z,12.42
2018-09-24T13:05:40.978Z,12.32
2018-09-24T13:06:40.958Z,12.29
2018-09-24T13:07:40.943Z,12.20